KJVL/JVL METAR and TAF weather

Enter ICAO airport designator
Station Type Date Time Source
KJVL METAR 2022/06/27 16:45 UTC NOAA

KJVL 271645Z 32015KT 10SM CLR 23/03 A3026


Station Type Date Time Source
KJVL Decoded METAR 2022/06/27 16:45 UTC NOAA

Janesville / Rock County, WI, United States (KJVL) 42-37N 089-02W
Jun 27, 2022 - 12:45 PM EDT / 2022.06.27 1645 UTC
Wind: from the NW (320 degrees) at 17 MPH (15 KT):0
Visibility: 10 mile(s):0
Sky conditions: clear
Temperature: 73 F (23 C)
Dew Point: 37 F (3 C)
Relative Humidity: 26%
Pressure (altimeter): 30.26 in. Hg (1024 hPa)
ob: KJVL 271645Z 32015KT 10SM CLR 23/03 A3026
cycle: 17

Station Type Date Time Source
KJVL TAF 2022/06/27 18:22 UTC NOAA

TAF KJVL 271720Z 2718/2818 32012KT P6SM FEW250
FM280200 00000KT P6SM SKC
FM281200 VRB04KT P6SM FEW240
FM281400 23008KT P6SM SKC

Example: see airport list